Typhoon — UDVO — position and weather

sailwx.info

Track history (hours):
 
Tides and Currents Weather Stations Pressure Air Temp Water Temp Dewpoint Dewpoint Depression Visibility Wind Speed Wind Dir Waves Ship Positions

Typhoon

Last reported at 2017-Nov-20 00:19 UTC. Time now 2017-Nov-22 07:03 UTC.
Position N 59°41' E 028°25'.

Length 30 m.

Type: Tug. MMSI: 273317680.

Date/timePositionNaut miles runAvg speedWind from/ knotsBaromVisibWave heightAir tempDewpointWater temp
2017-Nov-20 00:19N 59°41' E 028°25'0 0.0
2017-Nov-19 23:55N 59°41' E 028°25'0 0.0
2017-Nov-19 23:25N 59°41' E 028°25'0 0.0
2017-Nov-19 22:55N 59°41' E 028°25'0 0.0
2017-Nov-19 22:25N 59°41' E 028°25'0 0.0
2017-Nov-19 21:55N 59°41' E 028°25'0 0.0
2017-Nov-19 21:25N 59°41' E 028°25'0 0.0
2017-Nov-19 20:58N 59°41' E 028°25'0 0.0
2017-Nov-19 20:28N 59°41' E 028°25'0 0.0
2017-Nov-19 19:58N 59°41' E 028°25'0 0.0
2017-Nov-19 19:28N 59°41' E 028°25'0 0.0
2017-Nov-19 18:58N 59°41' E 028°25'0 0.0
2017-Nov-19 18:28N 59°41' E 028°25'0 0.0
2017-Nov-19 17:58N 59°41' E 028°25'0 0.0
2017-Nov-19 17:28N 59°41' E 028°25'0 0.0
2017-Nov-19 16:58N 59°41' E 028°25'0 0.0
2017-Nov-19 16:28N 59°41' E 028°25'0 0.0
2017-Nov-19 15:58N 59°41' E 028°25'0 0.0
2017-Nov-19 15:28N 59°41' E 028°25'0 0.0
2017-Nov-19 14:49N 59°41' E 028°25'0 0.0
2017-Nov-19 14:19N 59°41' E 028°25'0 0.0
2017-Nov-19 13:52N 59°41' E 028°25'0 0.0
2017-Nov-19 13:22N 59°41' E 028°25'0 0.0
2017-Nov-19 12:52N 59°41' E 028°25'0 0.0
2017-Nov-19 12:22N 59°41' E 028°25'0 0.1
2017-Nov-19 11:58N 59°41' E 028°25'2 1.7
2017-Nov-19 11:00N 59°42' E 028°25'1 1.3
2017-Nov-19 10:27N 59°42' E 028°24'4 7.1
2017-Nov-19 09:56N 59°46' E 028°24'1 2.2
2017-Nov-19 09:24N 59°47' E 028°25'3 8.2
2017-Nov-19 09:00N 59°44' E 028°25'1 1.2
2017-Nov-19 08:26N 59°43' E 028°25'2 5.0
2017-Nov-19 08:01N 59°41' E 028°25'0 0.3
2017-Nov-19 07:20N 59°41' E 028°25'0 0.0
2017-Nov-19 06:50N 59°41' E 028°25'0 0.0
2017-Nov-19 06:23N 59°41' E 028°25'0 0.0
2017-Nov-19 05:53N 59°41' E 028°25'0 0.0
2017-Nov-19 05:23N 59°41' E 028°25'0 0.0
2017-Nov-19 04:53N 59°41' E 028°25'0 0.0
2017-Nov-19 04:23N 59°41' E 028°25'0 0.0
2017-Nov-19 03:50N 59°41' E 028°25'0 0.0
2017-Nov-19 03:23N 59°41' E 028°25'0 0.0
2017-Nov-19 02:56N 59°41' E 028°25'0 0.0
2017-Nov-19 02:26N 59°41' E 028°25'0 0.0
2017-Nov-19 01:56N 59°41' E 028°25'0 0.0
2017-Nov-19 01:26N 59°41' E 028°25'0 0.0
2017-Nov-19 00:56N 59°41' E 028°25'0 0.0
2017-Nov-19 00:29N 59°41' E 028°25'0 0.0
2017-Nov-18 23:50N 59°41' E 028°25'0 0.0
2017-Nov-18 23:23N 59°41' E 028°25'0 0.0
2017-Nov-18 22:53N 59°41' E 028°25'0 0.0
2017-Nov-18 22:23N 59°41' E 028°25'0 0.0
2017-Nov-18 21:53N 59°41' E 028°25'0 0.0
2017-Nov-18 21:23N 59°41' E 028°25'0 0.0
2017-Nov-18 20:56N 59°41' E 028°25'0 0.0
2017-Nov-18 20:26N 59°41' E 028°25'0 0.0
2017-Nov-18 19:56N 59°41' E 028°25'0 0.0
2017-Nov-18 19:26N 59°41' E 028°25'0 0.0
2017-Nov-18 18:56N 59°41' E 028°25'0 0.0
2017-Nov-18 18:26N 59°41' E 028°25'0 0.0
2017-Nov-18 17:59N 59°41' E 028°25'0 0.0
2017-Nov-18 17:26N 59°41' E 028°25'0 0.0
2017-Nov-18 16:59N 59°41' E 028°25'0 0.0
2017-Nov-18 16:29N 59°41' E 028°25'0 0.0
2017-Nov-18 15:59N 59°41' E 028°25'0 0.0
2017-Nov-18 15:29N 59°41' E 028°25'0 0.0
2017-Nov-18 14:59N 59°41' E 028°25'0 0.0
2017-Nov-18 14:29N 59°41' E 028°25'0 0.0
2017-Nov-18 13:59N 59°41' E 028°25'0 0.0
2017-Nov-18 13:29N 59°41' E 028°25'0 0.0
2017-Nov-18 12:59N 59°41' E 028°25'0 0.0
2017-Nov-18 12:29N 59°41' E 028°25'0 0.0
2017-Nov-18 11:59N 59°41' E 028°25'0 0.0
2017-Nov-18 11:29N 59°41' E 028°25'0 0.0
2017-Nov-18 10:59N 59°41' E 028°25'0 0.0
2017-Nov-18 10:20N 59°41' E 028°25'0 0.4
2017-Nov-18 09:48N 59°41' E 028°25'3 9.0
2017-Nov-18 09:28N 59°44' E 028°23'1 2.7
2017-Nov-18 08:57N 59°43' E 028°25'1 3.1
2017-Nov-18 08:30N 59°41' E 028°25'1 1.5
2017-Nov-18 07:54N 59°41' E 028°25'0 0.0
2017-Nov-18 07:21N 59°41' E 028°25'0 0.0
2017-Nov-18 06:54N 59°41' E 028°25'0 0.0
2017-Nov-18 06:27N 59°41' E 028°25'0 0.0
2017-Nov-18 05:57N 59°41' E 028°25'0 0.0
2017-Nov-18 05:27N 59°41' E 028°25'0 0.0
2017-Nov-18 04:42N 59°41' E 028°25'0 0.0
2017-Nov-18 04:30N 59°41' E 028°25'0 0.0
2017-Nov-18 04:00N 59°41' E 028°25'0 0.0
2017-Nov-18 03:30N 59°41' E 028°25'0 0.0
2017-Nov-18 03:00N 59°41' E 028°25'0 0.0
2017-Nov-18 02:30N 59°41' E 028°25'0 0.0
2017-Nov-18 02:00N 59°41' E 028°25'0 0.0
2017-Nov-18 01:30N 59°41' E 028°25'0 0.0
2017-Nov-18 01:00N 59°41' E 028°25'0 0.0
2017-Nov-18 00:30N 59°41' E 028°25'0 0.0
2017-Nov-18 00:00N 59°41' E 028°25'0 0.0
2017-Nov-17 23:30N 59°41' E 028°25'0 0.0
2017-Nov-17 23:00N 59°41' E 028°25'0 0.0
2017-Nov-17 22:30N 59°41' E 028°25'0 0.0
2017-Nov-17 21:51N 59°41' E 028°25'0 0.0
2017-Nov-17 21:21N 59°41' E 028°25'0 0.0
2017-Nov-17 20:54N 59°41' E 028°25'0 0.0
2017-Nov-17 20:24N 59°41' E 028°25'0 0.0
2017-Nov-17 19:54N 59°41' E 028°25'0 0.0
2017-Nov-17 19:24N 59°41' E 028°25'0 0.0
2017-Nov-17 18:54N 59°41' E 028°25'0 0.0
2017-Nov-17 18:27N 59°41' E 028°25'0 0.0
2017-Nov-17 17:57N 59°41' E 028°25'0 0.0
2017-Nov-17 17:27N 59°41' E 028°25'0 0.0
2017-Nov-17 16:54N 59°41' E 028°25'0 0.0
2017-Nov-17 16:27N 59°41' E 028°25'0 0.0
2017-Nov-17 16:00N 59°41' E 028°25'0 0.0
2017-Nov-17 15:30N 59°41' E 028°25'2 3.4
2017-Nov-17 14:58N 59°42' E 028°25'0 0.7
2017-Nov-17 14:21N 59°43' E 028°26'1 1.8
2017-Nov-17 13:53N 59°42' E 028°25'1 3.8
2017-Nov-17 13:30N 59°43' E 028°24'0 0.6
2017-Nov-17 13:00N 59°43' E 028°24'2 3.7
2017-Nov-17 12:25N 59°41' E 028°25'0 0.0
2017-Nov-17 11:55N 59°41' E 028°25'0 0.0
2017-Nov-17 11:25N 59°41' E 028°25'0 0.0
2017-Nov-17 10:55N 59°41' E 028°25'0 0.0
2017-Nov-17 10:25N 59°41' E 028°25'0 0.0
2017-Nov-17 09:58N 59°41' E 028°25'0 0.0
2017-Nov-17 09:28N 59°41' E 028°25'0 0.0
2017-Nov-17 08:58N 59°41' E 028°25'0 0.0
2017-Nov-17 08:25N 59°41' E 028°25'0 0.0
2017-Nov-17 07:58N 59°41' E 028°25'0 0.0
2017-Nov-17 07:28N 59°41' E 028°25'0 0.0
2017-Nov-17 06:59N 59°41' E 028°25'0 0.0
2017-Nov-17 06:28N 59°41' E 028°25'0 0.0
2017-Nov-17 05:47N 59°41' E 028°25'0 0.0
2017-Nov-17 05:29N 59°41' E 028°25'0 0.0
2017-Nov-17 04:49N 59°41' E 028°25'0 0.0
2017-Nov-17 04:28N 59°41' E 028°25'0 0.0
2017-Nov-17 03:49N 59°41' E 028°25'0 0.0
2017-Nov-17 03:20N 59°41' E 028°25'0 0.0
2017-Nov-17 02:53N 59°41' E 028°25'0 0.0
2017-Nov-17 02:23N 59°41' E 028°25'0 0.0
2017-Nov-17 01:53N 59°41' E 028°25'0 0.0
2017-Nov-17 01:23N 59°41' E 028°25'0 1.0
2017-Nov-17 00:56N 59°41' E 028°25'1 2.4
2017-Nov-17 00:31N 59°42' E 028°26'0 0.2
2017-Nov-16 23:50N 59°42' E 028°25'1 2.1
2017-Nov-16 23:29N 59°42' E 028°24'4 6.9
2017-Nov-16 22:58N 59°46' E 028°24'3 5.2
2017-Nov-16 22:28N 59°43' E 028°23'2 3.1
2017-Nov-16 21:53N 59°42' E 028°20'0 0.0
2017-Nov-16 21:20N 59°42' E 028°20'0 0.0
2017-Nov-16 20:53N 59°42' E 028°20'0 0.0
2017-Nov-16 20:26N 59°42' E 028°20'0 0.0
2017-Nov-16 19:53N 59°42' E 028°20'0 0.0
2017-Nov-16 19:26N 59°42' E 028°20'0 0.0
2017-Nov-16 18:56N 59°42' E 028°20'0 0.0
2017-Nov-16 18:26N 59°42' E 028°20'0 0.0
2017-Nov-16 17:56N 59°42' E 028°20'0 0.0
2017-Nov-16 17:29N 59°42' E 028°20'0 0.0
2017-Nov-16 16:59N 59°42' E 028°20'0 0.0
2017-Nov-16 16:29N 59°42' E 028°20'0 0.0
2017-Nov-16 15:59N 59°42' E 028°20'0 0.0
2017-Nov-16 15:29N 59°42' E 028°20'0 0.0
2017-Nov-16 14:59N 59°42' E 028°20'0 0.0
2017-Nov-16 14:29N 59°42' E 028°20'0 0.0
2017-Nov-16 13:59N 59°42' E 028°20'0 0.0
2017-Nov-16 13:29N 59°42' E 028°20'0 0.0
2017-Nov-16 12:59N 59°42' E 028°20'0 0.0
2017-Nov-16 12:29N 59°42' E 028°20'0 0.0
2017-Nov-16 11:59N 59°42' E 028°20'0 0.0
2017-Nov-16 11:20N 59°42' E 028°20'1 3.8
2017-Nov-16 10:57N 59°43' E 028°22'2 4.8
2017-Nov-16 10:26N 59°45' E 028°25'3 5.4
2017-Nov-16 09:56N 59°42' E 028°25'0 0.2
2017-Nov-16 09:27N 59°42' E 028°26'0 1.1
2017-Nov-16 09:00N 59°42' E 028°25'2 4.6
2017-Nov-16 08:30N 59°42' E 028°20'0 0.1
2017-Nov-16 08:00N 59°42' E 028°20'3 6.0
2017-Nov-16 07:29N 59°44' E 028°25'1 2.7
2017-Nov-16 07:00N 59°42' E 028°26'0 0.5
2017-Nov-16 06:28N 59°42' E 028°25'3 5.6
2017-Nov-16 06:00N 59°42' E 028°20'0 0.1
2017-Nov-16 05:26N 59°42' E 028°20'2 3.8
2017-Nov-16 04:55N 59°41' E 028°24'1 2.2
2017-Nov-16 04:28N 59°41' E 028°25'0 0.0
2017-Nov-16 03:58N 59°41' E 028°25'0 0.0
2017-Nov-16 03:19N 59°41' E 028°25'0 0.0
2017-Nov-16 02:49N 59°41' E 028°25'0 0.0
2017-Nov-16 02:07N 59°41' E 028°25'0 0.0
2017-Nov-16 01:52N 59°41' E 028°25'0 0.0
2017-Nov-16 01:22N 59°41' E 028°25'0 0.0
2017-Nov-16 00:52N 59°41' E 028°25'0 0.4
2017-Nov-16 00:26N 59°41' E 028°25'5 9.1
2017-Nov-15 23:55N 59°45' E 028°24'3 6.1
2017-Nov-15 23:28N 59°43' E 028°26'0 0.1
2017-Nov-15 22:58N 59°43' E 028°26'0 0.0
2017-Nov-15 22:28N 59°43' E 028°26'2 4.1
2017-Nov-15 21:55N 59°41' E 028°25'0 0.0
2017-Nov-15 21:27N 59°41' E 028°25'0 0.0
2017-Nov-15 20:58N 59°41' E 028°25'0 0.0
2017-Nov-15 20:27N 59°41' E 028°25'0 0.0
2017-Nov-15 20:00N 59°41' E 028°25'0 0.0
2017-Nov-15 19:31N 59°41' E 028°25'0 0.0
2017-Nov-15 19:01N 59°41' E 028°25'0 0.0
2017-Nov-15 18:31N 59°41' E 028°25'0 0.0
2017-Nov-15 17:58N 59°41' E 028°25'0 0.0
2017-Nov-15 17:28N 59°41' E 028°25'0 0.0
2017-Nov-15 16:49N 59°41' E 028°25'0 0.0
2017-Nov-15 16:31N 59°41' E 028°25'0 0.0
2017-Nov-15 16:01N 59°41' E 028°25'0 0.0
2017-Nov-15 15:19N 59°41' E 028°25'0 0.0
2017-Nov-15 14:52N 59°41' E 028°25'0 0.0
2017-Nov-15 14:22N 59°41' E 028°25'0 0.0
2017-Nov-15 13:52N 59°41' E 028°25'0 0.0
2017-Nov-15 13:22N 59°41' E 028°25'0 0.0
2017-Nov-15 12:55N 59°41' E 028°25'0 0.0
2017-Nov-15 12:22N 59°41' E 028°25'0 0.0
2017-Nov-15 11:55N 59°41' E 028°25'0 0.0
2017-Nov-15 11:25N 59°41' E 028°25'0 0.0
2017-Nov-15 10:55N 59°41' E 028°25'0 0.0
2017-Nov-15 10:28N 59°41' E 028°25'0 0.0
2017-Nov-15 09:58N 59°41' E 028°25'0 0.0
2017-Nov-15 09:28N 59°41' E 028°25'0 0.0
2017-Nov-15 08:58N 59°41' E 028°25'0 0.0
2017-Nov-15 08:28N 59°41' E 028°25'0 0.0
2017-Nov-15 07:58N 59°41' E 028°25'0 0.0
2017-Nov-15 07:28N 59°41' E 028°25'0 0.0
2017-Nov-15 06:58N 59°41' E 028°25'0 0.0
2017-Nov-15 06:25N 59°41' E 028°25'0 0.0
2017-Nov-15 05:52N 59°41' E 028°25'0 0.0
2017-Nov-15 05:25N 59°41' E 028°25'0 0.0
2017-Nov-15 04:55N 59°41' E 028°25'0 0.0
2017-Nov-15 04:25N 59°41' E 028°25'0 0.0
2017-Nov-15 03:58N 59°41' E 028°25'0 0.0
2017-Nov-15 03:28N 59°41' E 028°25'0 0.0
2017-Nov-15 02:58N 59°41' E 028°25'0 0.0
2017-Nov-15 02:28N 59°41' E 028°25'0 0.0
2017-Nov-15 01:58N 59°41' E 028°25'0 0.0
2017-Nov-15 01:28N 59°41' E 028°25'0 0.0
2017-Nov-15 00:58N 59°41' E 028°25'0 0.0
2017-Nov-15 00:28N 59°41' E 028°25'0 0.0
2017-Nov-14 23:58N 59°41' E 028°25'1 1.6
2017-Nov-14 23:28N 59°41' E 028°25'1 1.0
2017-Nov-14 22:47N 59°42' E 028°26'0 1.6
2017-Nov-14 22:29N 59°41' E 028°25'2 3.1
2017-Nov-14 22:00N 59°43' E 028°24'3 5.0
2017-Nov-14 21:25N 59°46' E 028°24'3 6.6
2017-Nov-14 21:00N 59°43' E 028°23'3 3.7
2017-Nov-14 20:19N 59°41' E 028°25'0 0.0
2017-Nov-14 19:52N 59°41' E 028°25'0 0.0
2017-Nov-14 19:22N 59°41' E 028°25'0 0.0
2017-Nov-14 18:52N 59°41' E 028°25'0 0.0
2017-Nov-14 18:22N 59°41' E 028°25'0 0.0
2017-Nov-14 17:52N 59°41' E 028°25'0 0.0
2017-Nov-14 17:25N 59°41' E 028°25'0 0.0
2017-Nov-14 16:52N 59°41' E 028°25'0 0.0
2017-Nov-14 16:25N 59°41' E 028°25'0 0.0
2017-Nov-14 15:58N 59°41' E 028°25'0 0.0
2017-Nov-14 15:28N 59°41' E 028°25'0 0.0
2017-Nov-14 14:58N 59°41' E 028°25'0 0.0
2017-Nov-14 14:28N 59°41' E 028°25'0 0.0
2017-Nov-14 13:58N 59°41' E 028°25'0 0.0
2017-Nov-14 13:28N 59°41' E 028°25'0 0.0
2017-Nov-14 12:46N 59°41' E 028°25'0 0.0
2017-Nov-14 12:28N 59°41' E 028°25'0 0.0
2017-Nov-14 11:43N 59°41' E 028°25'0 0.0
2017-Nov-14 11:28N 59°41' E 028°25'0 0.0
2017-Nov-14 10:58N 59°41' E 028°25'0 0.0
2017-Nov-14 10:28N 59°41' E 028°25'0 0.0
2017-Nov-14 09:58N 59°41' E 028°25'0 0.0
2017-Nov-14 09:19N 59°41' E 028°25'0 0.1
2017-Nov-14 08:53N 59°41' E 028°25'2 6.4
2017-Nov-14 08:30N 59°43' E 028°25'0 0.2
2017-Nov-14 07:21N 59°43' E 028°26'1 4.3
2017-Nov-14 07:00N 59°41' E 028°25'1 1.2
2017-Nov-14 06:22N 59°41' E 028°25'0 0.0
2017-Nov-14 05:52N 59°41' E 028°25'0 0.0
2017-Nov-14 05:25N 59°41' E 028°25'0 0.0
2017-Nov-14 04:55N 59°41' E 028°25'0 0.0
2017-Nov-14 04:22N 59°41' E 028°25'0 0.0
2017-Nov-14 03:55N 59°41' E 028°25'0 0.0
2017-Nov-14 03:25N 59°41' E 028°25'0 0.0
2017-Nov-14 02:58N 59°41' E 028°25'0 0.0
2017-Nov-14 02:28N 59°41' E 028°25'0 0.0
2017-Nov-14 01:58N 59°41' E 028°25'0 0.0
2017-Nov-14 01:28N 59°41' E 028°25'0 0.0
2017-Nov-14 00:58N 59°41' E 028°25'0 0.0
2017-Nov-14 00:28N 59°41' E 028°25'0 0.0
2017-Nov-13 23:58N 59°41' E 028°25'0 0.0
2017-Nov-13 23:28N 59°41' E 028°25'0 0.4
2017-Nov-13 23:00N 59°41' E 028°25'2 1.4
2017-Nov-13 21:50N 59°42' E 028°25'2 0.1
2017-Nov-13 01:59N 59°41' E 028°25'0 0.0
2017-Nov-13 01:29N 59°41' E 028°25'0 0.0
2017-Nov-13 00:50N 59°41' E 028°25'0 0.0
2017-Nov-13 00:20N 59°41' E 028°25'0 0.0
2017-Nov-12 23:47N 59°41' E 028°25'0 0.0
2017-Nov-12 23:23N 59°41' E 028°25'0 0.0
2017-Nov-12 22:53N 59°41' E 028°25'0 0.0
2017-Nov-12 22:23N 59°41' E 028°25'0 0.0
2017-Nov-12 21:53N 59°41' E 028°25'0 0.0
2017-Nov-12 21:23N 59°41' E 028°25'0 0.0
2017-Nov-12 20:53N 59°41' E 028°25'0 0.0
2017-Nov-12 20:26N 59°41' E 028°25'0 0.0
2017-Nov-12 19:56N 59°41' E 028°25'0 0.0
2017-Nov-12 19:23N 59°41' E 028°25'0 0.0
2017-Nov-12 18:56N 59°41' E 028°25'0 0.0
2017-Nov-12 18:26N 59°41' E 028°25'0 0.0
2017-Nov-12 17:56N 59°41' E 028°25'0 0.0
2017-Nov-12 17:26N 59°41' E 028°25'0 0.0
2017-Nov-12 16:59N 59°41' E 028°25'0 0.0
2017-Nov-12 16:29N 59°41' E 028°25'0 0.0
2017-Nov-12 15:59N 59°41' E 028°25'2 1.3
2017-Nov-12 14:33N 59°42' E 028°26'1 1.1
2017-Nov-12 14:04N 59°42' E 028°25'1 3.7
2017-Nov-12 13:55N 59°41' E 028°25'2 5.7
2017-Nov-12 13:30N 59°44' E 028°23'0 0.1
2017-Nov-12 13:00N 59°44' E 028°23'3 4.6
2017-Nov-12 12:20N 59°41' E 028°25'0 0.0
2017-Nov-12 11:50N 59°41' E 028°25'0 0.0
2017-Nov-12 11:23N 59°41' E 028°25'0 0.0
2017-Nov-12 10:53N 59°41' E 028°25'0 0.0
2017-Nov-12 10:23N 59°41' E 028°25'0 0.0
2017-Nov-12 09:53N 59°41' E 028°25'0 0.0
2017-Nov-12 09:23N 59°41' E 028°25'0 0.0
2017-Nov-12 08:53N 59°41' E 028°25'0 0.0
2017-Nov-12 08:26N 59°41' E 028°25'0 0.0
2017-Nov-12 07:56N 59°41' E 028°25'0 0.0
2017-Nov-12 07:26N 59°41' E 028°25'0 0.0
2017-Nov-12 06:56N 59°41' E 028°25'0 0.0
2017-Nov-12 06:26N 59°41' E 028°25'0 0.0
2017-Nov-12 05:56N 59°41' E 028°25'0 0.0
2017-Nov-12 05:29N 59°41' E 028°25'0 0.0
2017-Nov-12 04:59N 59°41' E 028°25'0 0.0
2017-Nov-12 04:29N 59°41' E 028°25'0 0.0
2017-Nov-12 03:59N 59°41' E 028°25'0 0.0
2017-Nov-12 03:29N 59°41' E 028°25'0 0.0
2017-Nov-12 02:59N 59°41' E 028°25'0 0.0
2017-Nov-12 02:29N 59°41' E 028°25'0 0.0
2017-Nov-12 01:59N 59°41' E 028°25'0 0.0
2017-Nov-12 01:29N 59°41' E 028°25'0 0.0
2017-Nov-12 00:59N 59°41' E 028°25'0 0.0
2017-Nov-12 00:29N 59°41' E 028°25'0 0.0
2017-Nov-11 23:56N 59°41' E 028°25'0 0.0
2017-Nov-11 23:23N 59°41' E 028°25'0 0.0
2017-Nov-11 22:56N 59°41' E 028°25'0 0.0
2017-Nov-11 22:26N 59°41' E 028°25'0 0.0
2017-Nov-11 21:56N 59°41' E 028°25'0 0.0
2017-Nov-11 21:29N 59°41' E 028°25'0 0.0
2017-Nov-11 20:59N 59°41' E 028°25'0 0.0
2017-Nov-11 20:29N 59°41' E 028°25'0 0.0
2017-Nov-11 19:59N 59°41' E 028°25'0 0.0
2017-Nov-11 19:26N 59°41' E 028°25'0 0.0
2017-Nov-11 18:59N 59°41' E 028°25'0 0.0
2017-Nov-11 18:29N 59°41' E 028°25'0 0.0
2017-Nov-11 17:59N 59°41' E 028°25'0 0.0
2017-Nov-11 17:29N 59°41' E 028°25'0 0.6
2017-Nov-11 17:00N 59°41' E 028°25'4 8.8
2017-Nov-11 16:30N 59°45' E 028°24'2 4.7
2017-Nov-11 16:00N 59°43' E 028°25'1 0.6
2017-Nov-11 14:52N 59°42' E 028°25'2 4.7
2017-Nov-11 14:30N 59°41' E 028°25'0 0.0
2017-Nov-11 14:00N 59°41' E 028°25'0 0.0
2017-Nov-11 13:30N 59°41' E 028°25'0 0.0
2017-Nov-11 12:54N 59°41' E 028°25'0 0.0
2017-Nov-11 12:18N 59°41' E 028°25'0 0.0
2017-Nov-11 11:54N 59°41' E 028°25'0 0.0
2017-Nov-11 11:24N 59°41' E 028°25'0 0.0
2017-Nov-11 10:54N 59°41' E 028°25'0 0.0
2017-Nov-11 10:24N 59°41' E 028°25'0 0.0
2017-Nov-11 09:57N 59°41' E 028°25'0 0.0
2017-Nov-11 09:27N 59°41' E 028°25'0 0.0
2017-Nov-11 08:57N 59°41' E 028°25'0 0.0
2017-Nov-11 08:27N 59°41' E 028°25'0 0.0
2017-Nov-11 07:57N 59°41' E 028°25'0 0.0
2017-Nov-11 07:27N 59°41' E 028°25'0 0.0
2017-Nov-11 07:00N 59°41' E 028°25'0 0.0
2017-Nov-11 06:30N 59°41' E 028°25'0 0.0
2017-Nov-11 06:00N 59°41' E 028°25'0 0.0
2017-Nov-11 05:30N 59°41' E 028°25'0 0.0
2017-Nov-11 05:00N 59°41' E 028°25'0 0.0
2017-Nov-11 04:30N 59°41' E 028°25'0 0.0
2017-Nov-11 04:00N 59°41' E 028°25'0 0.0
2017-Nov-11 03:30N 59°41' E 028°25'0 0.0
2017-Nov-11 03:00N 59°41' E 028°25'0 0.0
2017-Nov-11 02:30N 59°41' E 028°25'0 0.0
2017-Nov-11 02:00N 59°41' E 028°25'0 0.0
2017-Nov-11 01:30N 59°41' E 028°25'0 0.0
2017-Nov-11 00:51N 59°41' E 028°25'0 0.0
2017-Nov-11 00:21N 59°41' E 028°25'0 0.0
2017-Nov-10 23:54N 59°41' E 028°25'2 4.9
2017-Nov-10 23:28N 59°43' E 028°26'0 0.5
2017-Nov-10 22:57N 59°42' E 028°25'1 2.1
2017-Nov-10 22:26N 59°42' E 028°24'4 7.1
2017-Nov-10 21:56N 59°45' E 028°24'2 3.8
2017-Nov-10 21:25N 59°43' E 028°25'1 1.9
2017-Nov-10 21:00N 59°42' E 028°26'1 0.8
2017-Nov-10 20:23N 59°42' E 028°25'1 2.7
2017-Nov-10 19:51N 59°41' E 028°25'0 0.0
2017-Nov-10 19:24N 59°41' E 028°25'0 0.0
2017-Nov-10 18:54N 59°41' E 028°25'0 0.0
2017-Nov-10 18:27N 59°41' E 028°25'0 0.0
2017-Nov-10 17:57N 59°41' E 028°25'0 0.0
2017-Nov-10 17:27N 59°41' E 028°25'0 0.0
2017-Nov-10 16:57N 59°41' E 028°25'0 0.0
2017-Nov-10 16:09N 59°41' E 028°25'0 0.0
2017-Nov-10 16:00N 59°41' E 028°25'0 0.0
2017-Nov-10 15:30N 59°41' E 028°25'0 0.0
2017-Nov-10 15:00N 59°41' E 028°25'0 0.0
2017-Nov-10 14:30N 59°41' E 028°25'0 0.0
2017-Nov-10 13:03N 59°41' E 028°25'0 0.0
2017-Nov-10 12:57N 59°41' E 028°25'0 0.0
2017-Nov-10 12:30N 59°41' E 028°25'0 0.0
2017-Nov-10 12:00N 59°41' E 028°25'0 0.0
2017-Nov-10 11:30N 59°41' E 028°25'0 0.0
2017-Nov-10 11:00N 59°41' E 028°25'0 0.0
2017-Nov-10 10:21N 59°41' E 028°25'0 0.0
2017-Nov-10 09:36N 59°41' E 028°25'0 0.0
2017-Nov-10 09:30N 59°41' E 028°25'2 1.7
2017-Nov-10 08:30N 59°42' E 028°26'0 0.9
2017-Nov-10 08:01N 59°42' E 028°25'1 2.1
2017-Nov-10 07:30N 59°43' E 028°24'1 2.4
2017-Nov-10 07:00N 59°44' E 028°24'3 6.5
2017-Nov-10 06:30N 59°41' E 028°25'0 0.0
2017-Nov-10 05:55N 59°41' E 028°25'0 0.0
2017-Nov-10 05:25N 59°41' E 028°25'0 0.0
2017-Nov-10 04:37N 59°41' E 028°25'0 0.0
2017-Nov-10 04:25N 59°41' E 028°25'0 0.0
2017-Nov-10 03:52N 59°41' E 028°25'0 0.0
2017-Nov-10 03:25N 59°41' E 028°25'0 0.0
2017-Nov-10 02:58N 59°41' E 028°25'0 0.0
2017-Nov-10 02:28N 59°41' E 028°25'0 0.0
2017-Nov-10 01:59N 59°41' E 028°25'0 0.0
2017-Nov-10 01:28N 59°41' E 028°25'0 0.0
2017-Nov-10 00:58N 59°41' E 028°25'0 0.0
2017-Nov-10 00:28N 59°41' E 028°25'  
Track history (hours):
 
Tides and Currents Weather Stations Pressure Air Temp Water Temp Dewpoint Dewpoint Depression Visibility Wind Speed Wind Dir Waves Ship Positions

Typhoon

Last reported at 2017-Nov-20 00:19 UTC. Time now 2017-Nov-22 07:03 UTC.
Position N 59°41' E 028°25'.

Length 30 m.

Type: Tug. MMSI: 273317680.

Date/timePositionNaut miles runAvg speedWind from/ knotsBaromVisibWave heightAir tempDewpointWater temp
2017-Nov-20 00:19N 59°41' E 028°25'0 0.0
2017-Nov-19 23:55N 59°41' E 028°25'0 0.0
2017-Nov-19 23:25N 59°41' E 028°25'0 0.0
2017-Nov-19 22:55N 59°41' E 028°25'0 0.0
2017-Nov-19 22:25N 59°41' E 028°25'0 0.0
2017-Nov-19 21:55N 59°41' E 028°25'0 0.0
2017-Nov-19 21:25N 59°41' E 028°25'0 0.0
2017-Nov-19 20:58N 59°41' E 028°25'0 0.0
2017-Nov-19 20:28N 59°41' E 028°25'0 0.0
2017-Nov-19 19:58N 59°41' E 028°25'0 0.0
2017-Nov-19 19:28N 59°41' E 028°25'0 0.0
2017-Nov-19 18:58N 59°41' E 028°25'0 0.0
2017-Nov-19 18:28N 59°41' E 028°25'0 0.0
2017-Nov-19 17:58N 59°41' E 028°25'0 0.0
2017-Nov-19 17:28N 59°41' E 028°25'0 0.0
2017-Nov-19 16:58N 59°41' E 028°25'0 0.0
2017-Nov-19 16:28N 59°41' E 028°25'0 0.0
2017-Nov-19 15:58N 59°41' E 028°25'0 0.0
2017-Nov-19 15:28N 59°41' E 028°25'0 0.0
2017-Nov-19 14:49N 59°41' E 028°25'0 0.0
2017-Nov-19 14:19N 59°41' E 028°25'0 0.0
2017-Nov-19 13:52N 59°41' E 028°25'0 0.0
2017-Nov-19 13:22N 59°41' E 028°25'0 0.0
2017-Nov-19 12:52N 59°41' E 028°25'0 0.0
2017-Nov-19 12:22N 59°41' E 028°25'0 0.1
2017-Nov-19 11:58N 59°41' E 028°25'2 1.7
2017-Nov-19 11:00N 59°42' E 028°25'1 1.3
2017-Nov-19 10:27N 59°42' E 028°24'4 7.1
2017-Nov-19 09:56N 59°46' E 028°24'1 2.2
2017-Nov-19 09:24N 59°47' E 028°25'3 8.2
2017-Nov-19 09:00N 59°44' E 028°25'1 1.2
2017-Nov-19 08:26N 59°43' E 028°25'2 5.0
2017-Nov-19 08:01N 59°41' E 028°25'0 0.3
2017-Nov-19 07:20N 59°41' E 028°25'0 0.0
2017-Nov-19 06:50N 59°41' E 028°25'0 0.0
2017-Nov-19 06:23N 59°41' E 028°25'0 0.0
2017-Nov-19 05:53N 59°41' E 028°25'0 0.0
2017-Nov-19 05:23N 59°41' E 028°25'0 0.0
2017-Nov-19 04:53N 59°41' E 028°25'0 0.0
2017-Nov-19 04:23N 59°41' E 028°25'0 0.0
2017-Nov-19 03:50N 59°41' E 028°25'0 0.0
2017-Nov-19 03:23N 59°41' E 028°25'0 0.0
2017-Nov-19 02:56N 59°41' E 028°25'0 0.0
2017-Nov-19 02:26N 59°41' E 028°25'0 0.0
2017-Nov-19 01:56N 59°41' E 028°25'0 0.0
2017-Nov-19 01:26N 59°41' E 028°25'0 0.0
2017-Nov-19 00:56N 59°41' E 028°25'0 0.0
2017-Nov-19 00:29N 59°41' E 028°25'0 0.0
2017-Nov-18 23:50N 59°41' E 028°25'0 0.0
2017-Nov-18 23:23N 59°41' E 028°25'0 0.0
2017-Nov-18 22:53N 59°41' E 028°25'0 0.0
2017-Nov-18 22:23N 59°41' E 028°25'0 0.0
2017-Nov-18 21:53N 59°41' E 028°25'0 0.0
2017-Nov-18 21:23N 59°41' E 028°25'0 0.0
2017-Nov-18 20:56N 59°41' E 028°25'0 0.0
2017-Nov-18 20:26N 59°41' E 028°25'0 0.0
2017-Nov-18 19:56N 59°41' E 028°25'0 0.0
2017-Nov-18 19:26N 59°41' E 028°25'0 0.0
2017-Nov-18 18:56N 59°41' E 028°25'0 0.0
2017-Nov-18 18:26N 59°41' E 028°25'0 0.0
2017-Nov-18 17:59N 59°41' E 028°25'0 0.0
2017-Nov-18 17:26N 59°41' E 028°25'0 0.0
2017-Nov-18 16:59N 59°41' E 028°25'0 0.0
2017-Nov-18 16:29N 59°41' E 028°25'0 0.0
2017-Nov-18 15:59N 59°41' E 028°25'0 0.0
2017-Nov-18 15:29N 59°41' E 028°25'0 0.0
2017-Nov-18 14:59N 59°41' E 028°25'0 0.0
2017-Nov-18 14:29N 59°41' E 028°25'0 0.0
2017-Nov-18 13:59N 59°41' E 028°25'0 0.0
2017-Nov-18 13:29N 59°41' E 028°25'0 0.0
2017-Nov-18 12:59N 59°41' E 028°25'0 0.0
2017-Nov-18 12:29N 59°41' E 028°25'0 0.0
2017-Nov-18 11:59N 59°41' E 028°25'0 0.0
2017-Nov-18 11:29N 59°41' E 028°25'0 0.0
2017-Nov-18 10:59N 59°41' E 028°25'0 0.0
2017-Nov-18 10:20N 59°41' E 028°25'0 0.4
2017-Nov-18 09:48N 59°41' E 028°25'3 9.0
2017-Nov-18 09:28N 59°44' E 028°23'1 2.7
2017-Nov-18 08:57N 59°43' E 028°25'1 3.1
2017-Nov-18 08:30N 59°41' E 028°25'1 1.5
2017-Nov-18 07:54N 59°41' E 028°25'0 0.0
2017-Nov-18 07:21N 59°41' E 028°25'0 0.0
2017-Nov-18 06:54N 59°41' E 028°25'0 0.0
2017-Nov-18 06:27N 59°41' E 028°25'0 0.0
2017-Nov-18 05:57N 59°41' E 028°25'0 0.0
2017-Nov-18 05:27N 59°41' E 028°25'0 0.0
2017-Nov-18 04:42N 59°41' E 028°25'0 0.0
2017-Nov-18 04:30N 59°41' E 028°25'0 0.0
2017-Nov-18 04:00N 59°41' E 028°25'0 0.0
2017-Nov-18 03:30N 59°41' E 028°25'0 0.0
2017-Nov-18 03:00N 59°41' E 028°25'0 0.0
2017-Nov-18 02:30N 59°41' E 028°25'0 0.0
2017-Nov-18 02:00N 59°41' E 028°25'0 0.0
2017-Nov-18 01:30N 59°41' E 028°25'0 0.0
2017-Nov-18 01:00N 59°41' E 028°25'0 0.0
2017-Nov-18 00:30N 59°41' E 028°25'0 0.0
2017-Nov-18 00:00N 59°41' E 028°25'0 0.0
2017-Nov-17 23:30N 59°41' E 028°25'0 0.0
2017-Nov-17 23:00N 59°41' E 028°25'0 0.0
2017-Nov-17 22:30N 59°41' E 028°25'0 0.0
2017-Nov-17 21:51N 59°41' E 028°25'0 0.0
2017-Nov-17 21:21N 59°41' E 028°25'0 0.0
2017-Nov-17 20:54N 59°41' E 028°25'0 0.0
2017-Nov-17 20:24N 59°41' E 028°25'0 0.0
2017-Nov-17 19:54N 59°41' E 028°25'0 0.0
2017-Nov-17 19:24N 59°41' E 028°25'0 0.0
2017-Nov-17 18:54N 59°41' E 028°25'0 0.0
2017-Nov-17 18:27N 59°41' E 028°25'0 0.0
2017-Nov-17 17:57N 59°41' E 028°25'0 0.0
2017-Nov-17 17:27N 59°41' E 028°25'0 0.0
2017-Nov-17 16:54N 59°41' E 028°25'0 0.0
2017-Nov-17 16:27N 59°41' E 028°25'0 0.0
2017-Nov-17 16:00N 59°41' E 028°25'0 0.0
2017-Nov-17 15:30N 59°41' E 028°25'2 3.4
2017-Nov-17 14:58N 59°42' E 028°25'0 0.7
2017-Nov-17 14:21N 59°43' E 028°26'1 1.8
2017-Nov-17 13:53N 59°42' E 028°25'1 3.8
2017-Nov-17 13:30N 59°43' E 028°24'0 0.6
2017-Nov-17 13:00N 59°43' E 028°24'2 3.7
2017-Nov-17 12:25N 59°41' E 028°25'0 0.0
2017-Nov-17 11:55N 59°41' E 028°25'0 0.0
2017-Nov-17 11:25N 59°41' E 028°25'0 0.0
2017-Nov-17 10:55N 59°41' E 028°25'0 0.0
2017-Nov-17 10:25N 59°41' E 028°25'0 0.0
2017-Nov-17 09:58N 59°41' E 028°25'0 0.0
2017-Nov-17 09:28N 59°41' E 028°25'0 0.0
2017-Nov-17 08:58N 59°41' E 028°25'0 0.0
2017-Nov-17 08:25N 59°41' E 028°25'0 0.0
2017-Nov-17 07:58N 59°41' E 028°25'0 0.0
2017-Nov-17 07:28N 59°41' E 028°25'0 0.0
2017-Nov-17 06:59N 59°41' E 028°25'0 0.0
2017-Nov-17 06:28N 59°41' E 028°25'0 0.0
2017-Nov-17 05:47N 59°41' E 028°25'0 0.0
2017-Nov-17 05:29N 59°41' E 028°25'0 0.0
2017-Nov-17 04:49N 59°41' E 028°25'0 0.0
2017-Nov-17 04:28N 59°41' E 028°25'0 0.0
2017-Nov-17 03:49N 59°41' E 028°25'0 0.0
2017-Nov-17 03:20N 59°41' E 028°25'0 0.0
2017-Nov-17 02:53N 59°41' E 028°25'0 0.0
2017-Nov-17 02:23N 59°41' E 028°25'0 0.0
2017-Nov-17 01:53N 59°41' E 028°25'0 0.0
2017-Nov-17 01:23N 59°41' E 028°25'0 1.0
2017-Nov-17 00:56N 59°41' E 028°25'1 2.4
2017-Nov-17 00:31N 59°42' E 028°26'0 0.2
2017-Nov-16 23:50N 59°42' E 028°25'1 2.1
2017-Nov-16 23:29N 59°42' E 028°24'4 6.9
2017-Nov-16 22:58N 59°46' E 028°24'3 5.2
2017-Nov-16 22:28N 59°43' E 028°23'2 3.1
2017-Nov-16 21:53N 59°42' E 028°20'0 0.0
2017-Nov-16 21:20N 59°42' E 028°20'0 0.0
2017-Nov-16 20:53N 59°42' E 028°20'0 0.0
2017-Nov-16 20:26N 59°42' E 028°20'0 0.0
2017-Nov-16 19:53N 59°42' E 028°20'0 0.0
2017-Nov-16 19:26N 59°42' E 028°20'0 0.0
2017-Nov-16 18:56N 59°42' E 028°20'0 0.0
2017-Nov-16 18:26N 59°42' E 028°20'0 0.0
2017-Nov-16 17:56N 59°42' E 028°20'0 0.0
2017-Nov-16 17:29N 59°42' E 028°20'0 0.0
2017-Nov-16 16:59N 59°42' E 028°20'0 0.0
2017-Nov-16 16:29N 59°42' E 028°20'0 0.0
2017-Nov-16 15:59N 59°42' E 028°20'0 0.0
2017-Nov-16 15:29N 59°42' E 028°20'0 0.0
2017-Nov-16 14:59N 59°42' E 028°20'0 0.0
2017-Nov-16 14:29N 59°42' E 028°20'0 0.0
2017-Nov-16 13:59N 59°42' E 028°20'0 0.0
2017-Nov-16 13:29N 59°42' E 028°20'0 0.0
2017-Nov-16 12:59N 59°42' E 028°20'0 0.0
2017-Nov-16 12:29N 59°42' E 028°20'0 0.0
2017-Nov-16 11:59N 59°42' E 028°20'0 0.0
2017-Nov-16 11:20N 59°42' E 028°20'1 3.8
2017-Nov-16 10:57N 59°43' E 028°22'2 4.8
2017-Nov-16 10:26N 59°45' E 028°25'3 5.4
2017-Nov-16 09:56N 59°42' E 028°25'0 0.2
2017-Nov-16 09:27N 59°42' E 028°26'0 1.1
2017-Nov-16 09:00N 59°42' E 028°25'2 4.6
2017-Nov-16 08:30N 59°42' E 028°20'0 0.1
2017-Nov-16 08:00N 59°42' E 028°20'3 6.0
2017-Nov-16 07:29N 59°44' E 028°25'1 2.7
2017-Nov-16 07:00N 59°42' E 028°26'0 0.5
2017-Nov-16 06:28N 59°42' E 028°25'3 5.6
2017-Nov-16 06:00N 59°42' E 028°20'0 0.1
2017-Nov-16 05:26N 59°42' E 028°20'2 3.8
2017-Nov-16 04:55N 59°41' E 028°24'1 2.2
2017-Nov-16 04:28N 59°41' E 028°25'0 0.0
2017-Nov-16 03:58N 59°41' E 028°25'0 0.0
2017-Nov-16 03:19N 59°41' E 028°25'0 0.0
2017-Nov-16 02:49N 59°41' E 028°25'0 0.0
2017-Nov-16 02:07N 59°41' E 028°25'0 0.0
2017-Nov-16 01:52N 59°41' E 028°25'0 0.0
2017-Nov-16 01:22N 59°41' E 028°25'0 0.0
2017-Nov-16 00:52N 59°41' E 028°25'0 0.4
2017-Nov-16 00:26N 59°41' E 028°25'5 9.1
2017-Nov-15 23:55N 59°45' E 028°24'3 6.1
2017-Nov-15 23:28N 59°43' E 028°26'0 0.1
2017-Nov-15 22:58N 59°43' E 028°26'0 0.0
2017-Nov-15 22:28N 59°43' E 028°26'2 4.1
2017-Nov-15 21:55N 59°41' E 028°25'0 0.0
2017-Nov-15 21:27N 59°41' E 028°25'0 0.0
2017-Nov-15 20:58N 59°41' E 028°25'0 0.0
2017-Nov-15 20:27N 59°41' E 028°25'0 0.0
2017-Nov-15 20:00N 59°41' E 028°25'0 0.0
2017-Nov-15 19:31N 59°41' E 028°25'0 0.0
2017-Nov-15 19:01N 59°41' E 028°25'0 0.0
2017-Nov-15 18:31N 59°41' E 028°25'0 0.0
2017-Nov-15 17:58N 59°41' E 028°25'0 0.0
2017-Nov-15 17:28N 59°41' E 028°25'0 0.0
2017-Nov-15 16:49N 59°41' E 028°25'0 0.0
2017-Nov-15 16:31N 59°41' E 028°25'0 0.0
2017-Nov-15 16:01N 59°41' E 028°25'0 0.0
2017-Nov-15 15:19N 59°41' E 028°25'0 0.0
2017-Nov-15 14:52N 59°41' E 028°25'0 0.0
2017-Nov-15 14:22N 59°41' E 028°25'0 0.0
2017-Nov-15 13:52N 59°41' E 028°25'0 0.0
2017-Nov-15 13:22N 59°41' E 028°25'0 0.0
2017-Nov-15 12:55N 59°41' E 028°25'0 0.0
2017-Nov-15 12:22N 59°41' E 028°25'0 0.0
2017-Nov-15 11:55N 59°41' E 028°25'0 0.0
2017-Nov-15 11:25N 59°41' E 028°25'0 0.0
2017-Nov-15 10:55N 59°41' E 028°25'0 0.0
2017-Nov-15 10:28N 59°41' E 028°25'0 0.0
2017-Nov-15 09:58N 59°41' E 028°25'0 0.0
2017-Nov-15 09:28N 59°41' E 028°25'0 0.0
2017-Nov-15 08:58N 59°41' E 028°25'0 0.0
2017-Nov-15 08:28N 59°41' E 028°25'0 0.0
2017-Nov-15 07:58N 59°41' E 028°25'0 0.0
2017-Nov-15 07:28N 59°41' E 028°25'0 0.0
2017-Nov-15 06:58N 59°41' E 028°25'0 0.0
2017-Nov-15 06:25N 59°41' E 028°25'0 0.0
2017-Nov-15 05:52N 59°41' E 028°25'0 0.0
2017-Nov-15 05:25N 59°41' E 028°25'0 0.0
2017-Nov-15 04:55N 59°41' E 028°25'0 0.0
2017-Nov-15 04:25N 59°41' E 028°25'0 0.0
2017-Nov-15 03:58N 59°41' E 028°25'0 0.0
2017-Nov-15 03:28N 59°41' E 028°25'0 0.0
2017-Nov-15 02:58N 59°41' E 028°25'0 0.0
2017-Nov-15 02:28N 59°41' E 028°25'0 0.0
2017-Nov-15 01:58N 59°41' E 028°25'0 0.0
2017-Nov-15 01:28N 59°41' E 028°25'0 0.0
2017-Nov-15 00:58N 59°41' E 028°25'0 0.0
2017-Nov-15 00:28N 59°41' E 028°25'0 0.0
2017-Nov-14 23:58N 59°41' E 028°25'1 1.6
2017-Nov-14 23:28N 59°41' E 028°25'1 1.0
2017-Nov-14 22:47N 59°42' E 028°26'0 1.6
2017-Nov-14 22:29N 59°41' E 028°25'2 3.1
2017-Nov-14 22:00N 59°43' E 028°24'3 5.0
2017-Nov-14 21:25N 59°46' E 028°24'3 6.6
2017-Nov-14 21:00N 59°43' E 028°23'3 3.7
2017-Nov-14 20:19N 59°41' E 028°25'0 0.0
2017-Nov-14 19:52N 59°41' E 028°25'0 0.0
2017-Nov-14 19:22N 59°41' E 028°25'0 0.0
2017-Nov-14 18:52N 59°41' E 028°25'0 0.0
2017-Nov-14 18:22N 59°41' E 028°25'0 0.0
2017-Nov-14 17:52N 59°41' E 028°25'0 0.0
2017-Nov-14 17:25N 59°41' E 028°25'0 0.0
2017-Nov-14 16:52N 59°41' E 028°25'0 0.0
2017-Nov-14 16:25N 59°41' E 028°25'0 0.0
2017-Nov-14 15:58N 59°41' E 028°25'0 0.0
2017-Nov-14 15:28N 59°41' E 028°25'0 0.0
2017-Nov-14 14:58N 59°41' E 028°25'0 0.0
2017-Nov-14 14:28N 59°41' E 028°25'0 0.0
2017-Nov-14 13:58N 59°41' E 028°25'0 0.0
2017-Nov-14 13:28N 59°41' E 028°25'0 0.0
2017-Nov-14 12:46N 59°41' E 028°25'0 0.0
2017-Nov-14 12:28N 59°41' E 028°25'0 0.0
2017-Nov-14 11:43N 59°41' E 028°25'0 0.0
2017-Nov-14 11:28N 59°41' E 028°25'0 0.0
2017-Nov-14 10:58N 59°41' E 028°25'0 0.0
2017-Nov-14 10:28N 59°41' E 028°25'0 0.0
2017-Nov-14 09:58N 59°41' E 028°25'0 0.0
2017-Nov-14 09:19N 59°41' E 028°25'0 0.1
2017-Nov-14 08:53N 59°41' E 028°25'2 6.4
2017-Nov-14 08:30N 59°43' E 028°25'0 0.2
2017-Nov-14 07:21N 59°43' E 028°26'1 4.3
2017-Nov-14 07:00N 59°41' E 028°25'1 1.2
2017-Nov-14 06:22N 59°41' E 028°25'0 0.0
2017-Nov-14 05:52N 59°41' E 028°25'0 0.0
2017-Nov-14 05:25N 59°41' E 028°25'0 0.0
2017-Nov-14 04:55N 59°41' E 028°25'0 0.0
2017-Nov-14 04:22N 59°41' E 028°25'0 0.0
2017-Nov-14 03:55N 59°41' E 028°25'0 0.0
2017-Nov-14 03:25N 59°41' E 028°25'0 0.0
2017-Nov-14 02:58N 59°41' E 028°25'0 0.0
2017-Nov-14 02:28N 59°41' E 028°25'0 0.0
2017-Nov-14 01:58N 59°41' E 028°25'0 0.0
2017-Nov-14 01:28N 59°41' E 028°25'0 0.0
2017-Nov-14 00:58N 59°41' E 028°25'0 0.0
2017-Nov-14 00:28N 59°41' E 028°25'0 0.0
2017-Nov-13 23:58N 59°41' E 028°25'0 0.0
2017-Nov-13 23:28N 59°41' E 028°25'0 0.4
2017-Nov-13 23:00N 59°41' E 028°25'2 1.4
2017-Nov-13 21:50N 59°42' E 028°25'2 0.1
2017-Nov-13 01:59N 59°41' E 028°25'0 0.0
2017-Nov-13 01:29N 59°41' E 028°25'0 0.0
2017-Nov-13 00:50N 59°41' E 028°25'0 0.0
2017-Nov-13 00:20N 59°41' E 028°25'0 0.0
2017-Nov-12 23:47N 59°41' E 028°25'0 0.0
2017-Nov-12 23:23N 59°41' E 028°25'0 0.0
2017-Nov-12 22:53N 59°41' E 028°25'0 0.0
2017-Nov-12 22:23N 59°41' E 028°25'0 0.0
2017-Nov-12 21:53N 59°41' E 028°25'0 0.0
2017-Nov-12 21:23N 59°41' E 028°25'0 0.0
2017-Nov-12 20:53N 59°41' E 028°25'0 0.0
2017-Nov-12 20:26N 59°41' E 028°25'0 0.0
2017-Nov-12 19:56N 59°41' E 028°25'0 0.0
2017-Nov-12 19:23N 59°41' E 028°25'0 0.0
2017-Nov-12 18:56N 59°41' E 028°25'0 0.0
2017-Nov-12 18:26N 59°41' E 028°25'0 0.0
2017-Nov-12 17:56N 59°41' E 028°25'0 0.0
2017-Nov-12 17:26N 59°41' E 028°25'0 0.0
2017-Nov-12 16:59N 59°41' E 028°25'0 0.0
2017-Nov-12 16:29N 59°41' E 028°25'0 0.0
2017-Nov-12 15:59N 59°41' E 028°25'2 1.3
2017-Nov-12 14:33N 59°42' E 028°26'1 1.1
2017-Nov-12 14:04N 59°42' E 028°25'1 3.7
2017-Nov-12 13:55N 59°41' E 028°25'2 5.7
2017-Nov-12 13:30N 59°44' E 028°23'0 0.1
2017-Nov-12 13:00N 59°44' E 028°23'3 4.6
2017-Nov-12 12:20N 59°41' E 028°25'0 0.0
2017-Nov-12 11:50N 59°41' E 028°25'0 0.0
2017-Nov-12 11:23N 59°41' E 028°25'0 0.0
2017-Nov-12 10:53N 59°41' E 028°25'0 0.0
2017-Nov-12 10:23N 59°41' E 028°25'0 0.0
2017-Nov-12 09:53N 59°41' E 028°25'0 0.0
2017-Nov-12 09:23N 59°41' E 028°25'0 0.0
2017-Nov-12 08:53N 59°41' E 028°25'0 0.0
2017-Nov-12 08:26N 59°41' E 028°25'0 0.0
2017-Nov-12 07:56N 59°41' E 028°25'0 0.0
2017-Nov-12 07:26N 59°41' E 028°25'0 0.0
2017-Nov-12 06:56N 59°41' E 028°25'0 0.0
2017-Nov-12 06:26N 59°41' E 028°25'0 0.0
2017-Nov-12 05:56N 59°41' E 028°25'0 0.0
2017-Nov-12 05:29N 59°41' E 028°25'0 0.0
2017-Nov-12 04:59N 59°41' E 028°25'0 0.0
2017-Nov-12 04:29N 59°41' E 028°25'0 0.0
2017-Nov-12 03:59N 59°41' E 028°25'0 0.0
2017-Nov-12 03:29N 59°41' E 028°25'0 0.0
2017-Nov-12 02:59N 59°41' E 028°25'0 0.0
2017-Nov-12 02:29N 59°41' E 028°25'0 0.0
2017-Nov-12 01:59N 59°41' E 028°25'0 0.0
2017-Nov-12 01:29N 59°41' E 028°25'0 0.0
2017-Nov-12 00:59N 59°41' E 028°25'0 0.0
2017-Nov-12 00:29N 59°41' E 028°25'0 0.0
2017-Nov-11 23:56N 59°41' E 028°25'0 0.0
2017-Nov-11 23:23N 59°41' E 028°25'0 0.0
2017-Nov-11 22:56N 59°41' E 028°25'0 0.0
2017-Nov-11 22:26N 59°41' E 028°25'0 0.0
2017-Nov-11 21:56N 59°41' E 028°25'0 0.0
2017-Nov-11 21:29N 59°41' E 028°25'0 0.0
2017-Nov-11 20:59N 59°41' E 028°25'0 0.0
2017-Nov-11 20:29N 59°41' E 028°25'0 0.0
2017-Nov-11 19:59N 59°41' E 028°25'0 0.0
2017-Nov-11 19:26N 59°41' E 028°25'0 0.0
2017-Nov-11 18:59N 59°41' E 028°25'0 0.0
2017-Nov-11 18:29N 59°41' E 028°25'0 0.0
2017-Nov-11 17:59N 59°41' E 028°25'0 0.0
2017-Nov-11 17:29N 59°41' E 028°25'0 0.6
2017-Nov-11 17:00N 59°41' E 028°25'4 8.8
2017-Nov-11 16:30N 59°45' E 028°24'2 4.7
2017-Nov-11 16:00N 59°43' E 028°25'1 0.6
2017-Nov-11 14:52N 59°42' E 028°25'2 4.7
2017-Nov-11 14:30N 59°41' E 028°25'0 0.0
2017-Nov-11 14:00N 59°41' E 028°25'0 0.0
2017-Nov-11 13:30N 59°41' E 028°25'0 0.0
2017-Nov-11 12:54N 59°41' E 028°25'0 0.0
2017-Nov-11 12:18N 59°41' E 028°25'0 0.0
2017-Nov-11 11:54N 59°41' E 028°25'0 0.0
2017-Nov-11 11:24N 59°41' E 028°25'0 0.0
2017-Nov-11 10:54N 59°41' E 028°25'0 0.0
2017-Nov-11 10:24N 59°41' E 028°25'0 0.0
2017-Nov-11 09:57N 59°41' E 028°25'0 0.0
2017-Nov-11 09:27N 59°41' E 028°25'0 0.0
2017-Nov-11 08:57N 59°41' E 028°25'0 0.0
2017-Nov-11 08:27N 59°41' E 028°25'0 0.0
2017-Nov-11 07:57N 59°41' E 028°25'0 0.0
2017-Nov-11 07:27N 59°41' E 028°25'0 0.0
2017-Nov-11 07:00N 59°41' E 028°25'0 0.0
2017-Nov-11 06:30N 59°41' E 028°25'0 0.0
2017-Nov-11 06:00N 59°41' E 028°25'0 0.0
2017-Nov-11 05:30N 59°41' E 028°25'0 0.0
2017-Nov-11 05:00N 59°41' E 028°25'0 0.0
2017-Nov-11 04:30N 59°41' E 028°25'0 0.0
2017-Nov-11 04:00N 59°41' E 028°25'0 0.0
2017-Nov-11 03:30N 59°41' E 028°25'0 0.0
2017-Nov-11 03:00N 59°41' E 028°25'0 0.0
2017-Nov-11 02:30N 59°41' E 028°25'0 0.0
2017-Nov-11 02:00N 59°41' E 028°25'0 0.0
2017-Nov-11 01:30N 59°41' E 028°25'0 0.0
2017-Nov-11 00:51N 59°41' E 028°25'0 0.0
2017-Nov-11 00:21N 59°41' E 028°25'0 0.0
2017-Nov-10 23:54N 59°41' E 028°25'2 4.9
2017-Nov-10 23:28N 59°43' E 028°26'0 0.5
2017-Nov-10 22:57N 59°42' E 028°25'1 2.1
2017-Nov-10 22:26N 59°42' E 028°24'4 7.1
2017-Nov-10 21:56N 59°45' E 028°24'2 3.8
2017-Nov-10 21:25N 59°43' E 028°25'1 1.9
2017-Nov-10 21:00N 59°42' E 028°26'1 0.8
2017-Nov-10 20:23N 59°42' E 028°25'1 2.7
2017-Nov-10 19:51N 59°41' E 028°25'0 0.0
2017-Nov-10 19:24N 59°41' E 028°25'0 0.0
2017-Nov-10 18:54N 59°41' E 028°25'0 0.0
2017-Nov-10 18:27N 59°41' E 028°25'0 0.0
2017-Nov-10 17:57N 59°41' E 028°25'0 0.0
2017-Nov-10 17:27N 59°41' E 028°25'0 0.0
2017-Nov-10 16:57N 59°41' E 028°25'0 0.0
2017-Nov-10 16:09N 59°41' E 028°25'0 0.0
2017-Nov-10 16:00N 59°41' E 028°25'0 0.0
2017-Nov-10 15:30N 59°41' E 028°25'0 0.0
2017-Nov-10 15:00N 59°41' E 028°25'0 0.0
2017-Nov-10 14:30N 59°41' E 028°25'0 0.0
2017-Nov-10 13:03N 59°41' E 028°25'0 0.0
2017-Nov-10 12:57N 59°41' E 028°25'0 0.0
2017-Nov-10 12:30N 59°41' E 028°25'0 0.0
2017-Nov-10 12:00N 59°41' E 028°25'0 0.0
2017-Nov-10 11:30N 59°41' E 028°25'0 0.0
2017-Nov-10 11:00N 59°41' E 028°25'0 0.0
2017-Nov-10 10:21N 59°41' E 028°25'0 0.0
2017-Nov-10 09:36N 59°41' E 028°25'0 0.0
2017-Nov-10 09:30N 59°41' E 028°25'2 1.7
2017-Nov-10 08:30N 59°42' E 028°26'0 0.9
2017-Nov-10 08:01N 59°42' E 028°25'1 2.1
2017-Nov-10 07:30N 59°43' E 028°24'1 2.4
2017-Nov-10 07:00N 59°44' E 028°24'3 6.5
2017-Nov-10 06:30N 59°41' E 028°25'0 0.0
2017-Nov-10 05:55N 59°41' E 028°25'0 0.0
2017-Nov-10 05:25N 59°41' E 028°25'0 0.0
2017-Nov-10 04:37N 59°41' E 028°25'0 0.0
2017-Nov-10 04:25N 59°41' E 028°25'0 0.0
2017-Nov-10 03:52N 59°41' E 028°25'0 0.0
2017-Nov-10 03:25N 59°41' E 028°25'0 0.0
2017-Nov-10 02:58N 59°41' E 028°25'0 0.0
2017-Nov-10 02:28N 59°41' E 028°25'0 0.0
2017-Nov-10 01:59N 59°41' E 028°25'0 0.0
2017-Nov-10 01:28N 59°41' E 028°25'0 0.0
2017-Nov-10 00:58N 59°41' E 028°25'0 0.0
2017-Nov-10 00:28N 59°41' E 028°25'  

Dump ship's entire track history